sensor_id;sensor_type;location;lat;lon;timestamp;pressure;altitude;pressure_sealevel;temperature;humidity
69855;BME280;57146;48.140;16.304;2022-12-18T00:01:34;100888.63;;;-1.28;80.79
69855;BME280;57146;48.140;16.304;2022-12-18T00:04:04;100881.88;;;-1.29;80.82
69855;BME280;57146;48.140;16.304;2022-12-18T00:06:32;100880.72;;;-1.27;80.44
69855;BME280;57146;48.140;16.304;2022-12-18T00:09:00;100883.28;;;-1.27;79.71
69855;BME280;57146;48.140;16.304;2022-12-18T00:11:29;100881.31;;;-1.25;80.29
69855;BME280;57146;48.140;16.304;2022-12-18T00:13:58;100890.06;;;-1.26;79.97
69855;BME280;57146;48.140;16.304;2022-12-18T00:16:27;100893.44;;;-1.25;79.79
69855;BME280;57146;48.140;16.304;2022-12-18T00:18:57;100892.84;;;-1.27;79.69
69855;BME280;57146;48.140;16.304;2022-12-18T00:21:25;100897.81;;;-1.26;80.01
69855;BME280;57146;48.140;16.304;2022-12-18T00:23:54;100906.72;;;-1.28;80.53
69855;BME280;57146;48.140;16.304;2022-12-18T00:26:27;100905.13;;;-1.29;80.21
69855;BME280;57146;48.140;16.304;2022-12-18T00:29:07;100905.13;;;-1.29;80.73
69855;BME280;57146;48.140;16.304;2022-12-18T00:31:34;100901.75;;;-1.30;80.06
69855;BME280;57146;48.140;16.304;2022-12-18T00:34:01;100909.50;;;-1.30;79.89
69855;BME280;57146;48.140;16.304;2022-12-18T00:36:31;100919.38;;;-1.33;79.99
69855;BME280;57146;48.140;16.304;2022-12-18T00:39:00;100912.78;;;-1.36;80.07
69855;BME280;57146;48.140;16.304;2022-12-18T00:41:27;100910.03;;;-1.34;79.83
69855;BME280;57146;48.140;16.304;2022-12-18T00:43:56;100906.81;;;-1.36;80.00
69855;BME280;57146;48.140;16.304;2022-12-18T00:46:22;100901.22;;;-1.40;80.42
69855;BME280;57146;48.140;16.304;2022-12-18T00:48:49;100903.81;;;-1.40;80.35
69855;BME280;57146;48.140;16.304;2022-12-18T00:51:16;100911.75;;;-1.41;80.45
69855;BME280;57146;48.140;16.304;2022-12-18T00:53:43;100912.28;;;-1.46;80.04
69855;BME280;57146;48.140;16.304;2022-12-18T00:56:10;100908.09;;;-1.47;80.39
69855;BME280;57146;48.140;16.304;2022-12-18T00:58:37;100912.81;;;-1.51;80.17
69855;BME280;57146;48.140;16.304;2022-12-18T01:01:05;100913.16;;;-1.54;80.40
69855;BME280;57146;48.140;16.304;2022-12-18T01:03:34;100914.72;;;-1.59;80.87
69855;BME280;57146;48.140;16.304;2022-12-18T01:06:10;100922.38;;;-1.66;81.08
69855;BME280;57146;48.140;16.304;2022-12-18T01:08:38;100921.47;;;-1.58;80.91
69855;BME280;57146;48.140;16.304;2022-12-18T01:11:13;100931.00;;;-1.59;81.07
69855;BME280;57146;48.140;16.304;2022-12-18T01:13:40;100937.94;;;-1.59;81.11
69855;BME280;57146;48.140;16.304;2022-12-18T01:16:08;100935.38;;;-1.59;81.09
69855;BME280;57146;48.140;16.304;2022-12-18T01:18:37;100949.34;;;-1.69;80.84
69855;BME280;57146;48.140;16.304;2022-12-18T01:21:13;100944.63;;;-1.65;81.14
69855;BME280;57146;48.140;16.304;2022-12-18T01:23:41;100935.97;;;-1.72;80.99
69855;BME280;57146;48.140;16.304;2022-12-18T01:26:15;100949.69;;;-1.72;81.25
69855;BME280;57146;48.140;16.304;2022-12-18T01:28:43;100953.25;;;-1.73;81.23
69855;BME280;57146;48.140;16.304;2022-12-18T01:31:25;100948.09;;;-1.73;80.96
69855;BME280;57146;48.140;16.304;2022-12-18T01:33:54;100943.72;;;-1.72;80.86
69855;BME280;57146;48.140;16.304;2022-12-18T01:36:26;100950.66;;;-1.73;80.48
69855;BME280;57146;48.140;16.304;2022-12-18T01:38:54;100950.22;;;-1.76;80.50
69855;BME280;57146;48.140;16.304;2022-12-18T01:41:25;100945.88;;;-1.76;80.26
69855;BME280;57146;48.140;16.304;2022-12-18T01:43:55;100946.41;;;-1.80;80.21
69855;BME280;57146;48.140;16.304;2022-12-18T01:46:24;100949.88;;;-1.88;79.00
69855;BME280;57146;48.140;16.304;2022-12-18T01:49:00;100957.28;;;-1.85;79.60
69855;BME280;57146;48.140;16.304;2022-12-18T01:51:29;100953.78;;;-1.92;79.30
69855;BME280;57146;48.140;16.304;2022-12-18T01:53:57;100957.16;;;-1.91;79.31
69855;BME280;57146;48.140;16.304;2022-12-18T01:56:26;100960.69;;;-1.93;79.48
69855;BME280;57146;48.140;16.304;2022-12-18T01:59:13;100959.91;;;-1.93;78.65
69855;BME280;57146;48.140;16.304;2022-12-18T02:01:40;100963.03;;;-1.98;79.02
69855;BME280;57146;48.140;16.304;2022-12-18T02:04:20;100970.94;;;-1.99;79.10
69855;BME280;57146;48.140;16.304;2022-12-18T02:06:52;100966.94;;;-2.02;78.40
69855;BME280;57146;48.140;16.304;2022-12-18T02:09:29;100969.66;;;-2.03;78.63
69855;BME280;57146;48.140;16.304;2022-12-18T02:12:15;100970.22;;;-2.08;78.87
69855;BME280;57146;48.140;16.304;2022-12-18T02:17:21;100981.84;;;-2.12;78.61
69855;BME280;57146;48.140;16.304;2022-12-18T02:27:54;100987.47;;;-2.31;78.36
69855;BME280;57146;48.140;16.304;2022-12-18T02:30:23;100995.75;;;-2.36;78.98
69855;BME280;57146;48.140;16.304;2022-12-18T02:32:52;100995.75;;;-2.36;79.06
69855;BME280;57146;48.140;16.304;2022-12-18T02:35:23;100990.13;;;-2.39;78.61
69855;BME280;57146;48.140;16.304;2022-12-18T02:37:54;101000.91;;;-2.36;79.07
69855;BME280;57146;48.140;16.304;2022-12-18T02:40:24;100997.41;;;-2.43;78.81
69855;BME280;57146;48.140;16.304;2022-12-18T02:42:52;101003.69;;;-2.46;79.52
69855;BME280;57146;48.140;16.304;2022-12-18T02:45:19;100998.91;;;-2.49;78.87
69855;BME280;57146;48.140;16.304;2022-12-18T02:47:49;101001.03;;;-2.52;79.35
69855;BME280;57146;48.140;16.304;2022-12-18T02:50:32;101008.41;;;-2.49;79.70
69855;BME280;57146;48.140;16.304;2022-12-18T02:53:11;101001.69;;;-2.58;79.60
69855;BME280;57146;48.140;16.304;2022-12-18T02:58:19;101011.84;;;-2.57;80.21
69855;BME280;57146;48.140;16.304;2022-12-18T03:03:35;101022.00;;;-2.55;80.14
69855;BME280;57146;48.140;16.304;2022-12-18T03:06:08;101021.47;;;-2.51;80.31
69855;BME280;57146;48.140;16.304;2022-12-18T03:08:50;101020.34;;;-2.48;80.55
69855;BME280;57146;48.140;16.304;2022-12-18T03:11:18;101028.56;;;-2.53;79.67
69855;BME280;57146;48.140;16.304;2022-12-18T03:13:50;101032.00;;;-2.60;80.04
69855;BME280;57146;48.140;16.304;2022-12-18T03:16:27;101029.41;;;-2.60;79.98
69855;BME280;57146;48.140;16.304;2022-12-18T03:18:59;101024.03;;;-2.74;80.76
69855;BME280;57146;48.140;16.304;2022-12-18T03:21:33;101023.66;;;-2.71;80.90
69855;BME280;57146;48.140;16.304;2022-12-18T03:24:06;101025.84;;;-2.82;81.53
69855;BME280;57146;48.140;16.304;2022-12-18T03:26:38;101027.56;;;-2.75;81.28
69855;BME280;57146;48.140;16.304;2022-12-18T03:29:22;101018.75;;;-2.80;80.46
69855;BME280;57146;48.140;16.304;2022-12-18T03:31:54;101028.41;;;-2.82;80.55
69855;BME280;57146;48.140;16.304;2022-12-18T03:34:34;101025.94;;;-2.99;81.52
69855;BME280;57146;48.140;16.304;2022-12-18T03:37:06;101028.38;;;-3.05;81.77
69855;BME280;57146;48.140;16.304;2022-12-18T03:39:36;101027.09;;;-3.18;82.76
69855;BME280;57146;48.140;16.304;2022-12-18T03:42:37;101034.31;;;-3.05;82.66
69855;BME280;57146;48.140;16.304;2022-12-18T03:47:58;101032.03;;;-3.00;82.18
69855;BME280;57146;48.140;16.304;2022-12-18T03:51:23;101029.19;;;-3.13;82.20
69855;BME280;57146;48.140;16.304;2022-12-18T03:56:12;101035.97;;;-3.12;83.24
69855;BME280;57146;48.140;16.304;2022-12-18T03:58:41;101047.38;;;-3.15;83.13
69855;BME280;57146;48.140;16.304;2022-12-18T04:01:18;101043.81;;;-3.05;82.82
69855;BME280;57146;48.140;16.304;2022-12-18T04:03:48;101051.25;;;-3.19;82.25
69855;BME280;57146;48.140;16.304;2022-12-18T04:06:18;101052.91;;;-3.26;83.83
69855;BME280;57146;48.140;16.304;2022-12-18T04:08:46;101054.00;;;-3.20;82.33
69855;BME280;57146;48.140;16.304;2022-12-18T04:11:19;101056.09;;;-3.24;82.21
69855;BME280;57146;48.140;16.304;2022-12-18T04:13:46;101061.94;;;-3.30;81.57
69855;BME280;57146;48.140;16.304;2022-12-18T04:16:19;101071.56;;;-3.32;81.82
69855;BME280;57146;48.140;16.304;2022-12-18T04:18:50;101066.28;;;-3.39;81.75
69855;BME280;57146;48.140;16.304;2022-12-18T04:21:19;101071.28;;;-3.45;82.21
69855;BME280;57146;48.140;16.304;2022-12-18T04:23:47;101073.53;;;-3.50;81.80
69855;BME280;57146;48.140;16.304;2022-12-18T04:26:16;101073.72;;;-3.52;82.17
69855;BME280;57146;48.140;16.304;2022-12-18T04:28:53;101079.34;;;-3.48;82.49
69855;BME280;57146;48.140;16.304;2022-12-18T04:31:20;101081.25;;;-3.42;81.32
69855;BME280;57146;48.140;16.304;2022-12-18T04:33:48;101085.28;;;-3.48;81.42
69855;BME280;57146;48.140;16.304;2022-12-18T04:36:16;101092.19;;;-3.40;81.35
69855;BME280;57146;48.140;16.304;2022-12-18T04:38:44;101087.84;;;-3.56;82.49
69855;BME280;57146;48.140;16.304;2022-12-18T04:41:14;101093.19;;;-3.66;82.37
69855;BME280;57146;48.140;16.304;2022-12-18T04:43:43;101096.41;;;-3.72;83.05
69855;BME280;57146;48.140;16.304;2022-12-18T04:46:10;101094.00;;;-3.73;82.99
69855;BME280;57146;48.140;16.304;2022-12-18T04:48:37;101103.16;;;-3.71;82.53
69855;BME280;57146;48.140;16.304;2022-12-18T04:51:05;101102.69;;;-3.66;82.46
69855;BME280;57146;48.140;16.304;2022-12-18T04:53:33;101100.91;;;-3.74;82.93
69855;BME280;57146;48.140;16.304;2022-12-18T04:56:10;101096.56;;;-3.81;82.21
69855;BME280;57146;48.140;16.304;2022-12-18T04:58:39;101103.78;;;-3.85;82.39
69855;BME280;57146;48.140;16.304;2022-12-18T05:01:07;101100.91;;;-3.90;82.65
69855;BME280;57146;48.140;16.304;2022-12-18T05:03:35;101116.19;;;-3.89;82.42
69855;BME280;57146;48.140;16.304;2022-12-18T05:06:04;101114.56;;;-3.98;83.35
69855;BME280;57146;48.140;16.304;2022-12-18T05:08:31;101120.84;;;-4.00;82.84
69855;BME280;57146;48.140;16.304;2022-12-18T05:11:07;101121.94;;;-4.11;83.88
69855;BME280;57146;48.140;16.304;2022-12-18T05:13:36;101129.19;;;-4.06;83.09
69855;BME280;57146;48.140;16.304;2022-12-18T05:16:05;101118.75;;;-4.05;83.67
69855;BME280;57146;48.140;16.304;2022-12-18T05:18:33;101131.44;;;-4.03;82.75
69855;BME280;57146;48.140;16.304;2022-12-18T05:21:00;101134.81;;;-4.03;83.40
69855;BME280;57146;48.140;16.304;2022-12-18T05:23:27;101133.69;;;-4.00;83.31
69855;BME280;57146;48.140;16.304;2022-12-18T05:26:00;101122.59;;;-4.01;82.24
69855;BME280;57146;48.140;16.304;2022-12-18T05:28:29;101124.38;;;-4.01;82.81
69855;BME280;57146;48.140;16.304;2022-12-18T05:30:59;101129.81;;;-4.13;82.81
69855;BME280;57146;48.140;16.304;2022-12-18T05:33:30;101126.91;;;-4.18;81.89
69855;BME280;57146;48.140;16.304;2022-12-18T05:35:59;101128.81;;;-4.20;82.84
69855;BME280;57146;48.140;16.304;2022-12-18T05:38:28;101139.94;;;-4.19;83.05
69855;BME280;57146;48.140;16.304;2022-12-18T05:40:56;101133.94;;;-4.28;82.92
69855;BME280;57146;48.140;16.304;2022-12-18T05:43:26;101137.63;;;-4.30;83.00
69855;BME280;57146;48.140;16.304;2022-12-18T05:45:54;101141.97;;;-4.31;82.63
69855;BME280;57146;48.140;16.304;2022-12-18T05:48:21;101138.59;;;-4.31;83.17
69855;BME280;57146;48.140;16.304;2022-12-18T05:50:49;101133.63;;;-4.33;83.44
69855;BME280;57146;48.140;16.304;2022-12-18T05:53:19;101125.25;;;-4.35;84.03
69855;BME280;57146;48.140;16.304;2022-12-18T05:55:47;101140.19;;;-4.39;83.74
69855;BME280;57146;48.140;16.304;2022-12-18T05:58:14;101142.13;;;-4.32;83.31
69855;BME280;57146;48.140;16.304;2022-12-18T06:00:44;101144.41;;;-4.29;84.04
69855;BME280;57146;48.140;16.304;2022-12-18T06:03:13;101145.44;;;-4.48;83.78
69855;BME280;57146;48.140;16.304;2022-12-18T06:05:43;101148.78;;;-4.56;84.27
69855;BME280;57146;48.140;16.304;2022-12-18T06:08:11;101154.72;;;-4.64;84.43
69855;BME280;57146;48.140;16.304;2022-12-18T06:10:39;101167.44;;;-4.54;85.16
69855;BME280;57146;48.140;16.304;2022-12-18T06:13:06;101153.50;;;-4.51;83.83
69855;BME280;57146;48.140;16.304;2022-12-18T06:15:36;101170.94;;;-4.63;84.53
69855;BME280;57146;48.140;16.304;2022-12-18T06:18:03;101173.19;;;-4.60;84.98
69855;BME280;57146;48.140;16.304;2022-12-18T06:20:30;101172.13;;;-4.49;84.04
69855;BME280;57146;48.140;16.304;2022-12-18T06:22:59;101176.94;;;-4.54;83.41
69855;BME280;57146;48.140;16.304;2022-12-18T06:25:26;101172.66;;;-4.72;84.01
69855;BME280;57146;48.140;16.304;2022-12-18T06:27:53;101180.47;;;-4.82;84.22
69855;BME280;57146;48.140;16.304;2022-12-18T06:30:20;101181.91;;;-4.87;84.48
69855;BME280;57146;48.140;16.304;2022-12-18T06:32:50;101185.06;;;-4.93;84.39
69855;BME280;57146;48.140;16.304;2022-12-18T06:35:22;101178.13;;;-5.01;85.52
69855;BME280;57146;48.140;16.304;2022-12-18T06:37:49;101177.13;;;-5.08;85.69
69855;BME280;57146;48.140;16.304;2022-12-18T06:40:16;101178.56;;;-5.06;85.47
69855;BME280;57146;48.140;16.304;2022-12-18T06:42:43;101184.41;;;-4.95;85.48
69855;BME280;57146;48.140;16.304;2022-12-18T06:45:10;101180.94;;;-5.12;85.10
69855;BME280;57146;48.140;16.304;2022-12-18T06:47:40;101191.84;;;-5.10;85.61
69855;BME280;57146;48.140;16.304;2022-12-18T06:50:07;101200.47;;;-4.93;85.76
69855;BME280;57146;48.140;16.304;2022-12-18T06:52:34;101207.25;;;-5.10;85.19
69855;BME280;57146;48.140;16.304;2022-12-18T06:55:01;101198.31;;;-5.06;86.09
69855;BME280;57146;48.140;16.304;2022-12-18T06:57:28;101211.25;;;-5.16;85.81
69855;BME280;57146;48.140;16.304;2022-12-18T06:59:55;101216.16;;;-5.04;86.01
69855;BME280;57146;48.140;16.304;2022-12-18T07:02:22;101205.25;;;-4.98;86.24
69855;BME280;57146;48.140;16.304;2022-12-18T07:04:49;101217.06;;;-5.06;86.05
69855;BME280;57146;48.140;16.304;2022-12-18T07:07:16;101221.53;;;-5.16;86.15
69855;BME280;57146;48.140;16.304;2022-12-18T07:09:43;101224.38;;;-5.19;86.20
69855;BME280;57146;48.140;16.304;2022-12-18T07:12:10;101234.66;;;-5.19;86.18
69855;BME280;57146;48.140;16.304;2022-12-18T07:14:36;101232.44;;;-5.14;86.17
69855;BME280;57146;48.140;16.304;2022-12-18T07:17:03;101228.25;;;-5.15;86.32
69855;BME280;57146;48.140;16.304;2022-12-18T07:19:32;101226.50;;;-5.14;86.27
69855;BME280;57146;48.140;16.304;2022-12-18T07:21:59;101251.72;;;-5.10;86.44
69855;BME280;57146;48.140;16.304;2022-12-18T07:24:26;101257.38;;;-5.06;86.25
69855;BME280;57146;48.140;16.304;2022-12-18T07:26:52;101255.81;;;-4.99;85.62
69855;BME280;57146;48.140;16.304;2022-12-18T07:29:20;101258.91;;;-4.95;84.87
69855;BME280;57146;48.140;16.304;2022-12-18T07:31:48;101261.03;;;-4.91;85.39
69855;BME280;57146;48.140;16.304;2022-12-18T07:34:14;101261.53;;;-4.87;85.13
69855;BME280;57146;48.140;16.304;2022-12-18T07:36:41;101265.41;;;-4.83;85.25
69855;BME280;57146;48.140;16.304;2022-12-18T07:39:10;101276.63;;;-4.84;84.91
69855;BME280;57146;48.140;16.304;2022-12-18T07:41:37;101275.03;;;-4.85;85.46
69855;BME280;57146;48.140;16.304;2022-12-18T07:44:14;101269.31;;;-4.79;85.41
69855;BME280;57146;48.140;16.304;2022-12-18T07:46:41;101280.72;;;-4.73;85.07
69855;BME280;57146;48.140;16.304;2022-12-18T07:49:08;101286.22;;;-4.68;84.92
69855;BME280;57146;48.140;16.304;2022-12-18T07:51:35;101288.31;;;-4.72;85.54
69855;BME280;57146;48.140;16.304;2022-12-18T07:54:02;101299.72;;;-4.66;85.49
69855;BME280;57146;48.140;16.304;2022-12-18T07:56:29;101291.88;;;-4.65;85.85
69855;BME280;57146;48.140;16.304;2022-12-18T07:58:58;101303.63;;;-4.62;86.03
69855;BME280;57146;48.140;16.304;2022-12-18T08:01:28;101303.97;;;-4.57;85.41
69855;BME280;57146;48.140;16.304;2022-12-18T08:03:57;101314.25;;;-4.57;85.67
69855;BME280;57146;48.140;16.304;2022-12-18T08:06:24;101318.44;;;-4.56;85.34
69855;BME280;57146;48.140;16.304;2022-12-18T08:08:54;101318.34;;;-4.46;85.52
69855;BME280;57146;48.140;16.304;2022-12-18T08:11:23;101313.50;;;-4.49;84.22
69855;BME280;57146;48.140;16.304;2022-12-18T08:13:50;101309.31;;;-4.50;83.20
69855;BME280;57146;48.140;16.304;2022-12-18T08:16:18;101311.91;;;-4.50;83.22
69855;BME280;57146;48.140;16.304;2022-12-18T08:18:46;101306.16;;;-4.44;83.69
69855;BME280;57146;48.140;16.304;2022-12-18T08:21:15;101310.84;;;-4.40;84.14
69855;BME280;57146;48.140;16.304;2022-12-18T08:23:42;101303.31;;;-4.33;83.63
69855;BME280;57146;48.140;16.304;2022-12-18T08:26:13;101312.31;;;-4.37;83.48
69855;BME280;57146;48.140;16.304;2022-12-18T08:28:40;101298.94;;;-4.41;83.89
69855;BME280;57146;48.140;16.304;2022-12-18T08:31:08;101302.47;;;-4.42;84.34
69855;BME280;57146;48.140;16.304;2022-12-18T08:33:36;101306.66;;;-4.41;84.22
69855;BME280;57146;48.140;16.304;2022-12-18T08:36:05;101315.22;;;-4.32;84.42
69855;BME280;57146;48.140;16.304;2022-12-18T08:38:32;101303.97;;;-4.31;84.44
69855;BME280;57146;48.140;16.304;2022-12-18T08:43:27;101315.41;;;-4.25;84.90
69855;BME280;57146;48.140;16.304;2022-12-18T08:45:54;101312.69;;;-4.24;85.25
69855;BME280;57146;48.140;16.304;2022-12-18T08:48:21;101315.75;;;-4.20;85.48
69855;BME280;57146;48.140;16.304;2022-12-18T08:50:56;101305.53;;;-4.12;84.43
69855;BME280;57146;48.140;16.304;2022-12-18T08:53:24;101322.25;;;-4.08;85.41
69855;BME280;57146;48.140;16.304;2022-12-18T08:55:58;101325.03;;;-4.01;85.21
69855;BME280;57146;48.140;16.304;2022-12-18T08:58:25;101327.44;;;-4.00;85.15
69855;BME280;57146;48.140;16.304;2022-12-18T09:00:52;101326.34;;;-3.97;85.39
69855;BME280;57146;48.140;16.304;2022-12-18T09:03:19;101329.25;;;-3.92;85.21
69855;BME280;57146;48.140;16.304;2022-12-18T09:05:46;101323.66;;;-3.88;85.41
69855;BME280;57146;48.140;16.304;2022-12-18T09:08:13;101329.28;;;-3.84;84.91
69855;BME280;57146;48.140;16.304;2022-12-18T09:10:44;101338.31;;;-3.80;85.32
69855;BME280;57146;48.140;16.304;2022-12-18T09:13:12;101332.69;;;-3.75;85.14
69855;BME280;57146;48.140;16.304;2022-12-18T09:15:43;101334.47;;;-3.76;85.22
69855;BME280;57146;48.140;16.304;2022-12-18T09:18:10;101334.00;;;-3.71;85.41
69855;BME280;57146;48.140;16.304;2022-12-18T09:20:37;101338.66;;;-3.67;84.53
69855;BME280;57146;48.140;16.304;2022-12-18T09:23:05;101331.59;;;-3.65;85.36
69855;BME280;57146;48.140;16.304;2022-12-18T09:25:32;101333.06;;;-3.62;85.28
69855;BME280;57146;48.140;16.304;2022-12-18T09:28:00;101333.41;;;-3.57;85.30
69855;BME280;57146;48.140;16.304;2022-12-18T09:30:27;101337.44;;;-3.54;84.44
69855;BME280;57146;48.140;16.304;2022-12-18T09:32:54;101334.69;;;-3.53;84.77
69855;BME280;57146;48.140;16.304;2022-12-18T09:35:21;101331.97;;;-3.51;84.48
69855;BME280;57146;48.140;16.304;2022-12-18T09:37:48;101322.97;;;-3.47;84.97
69855;BME280;57146;48.140;16.304;2022-12-18T09:40:21;101311.22;;;-3.42;85.51
69855;BME280;57146;48.140;16.304;2022-12-18T09:42:53;101315.13;;;-3.38;85.30
69855;BME280;57146;48.140;16.304;2022-12-18T09:45:22;101327.81;;;-3.36;85.71
69855;BME280;57146;48.140;16.304;2022-12-18T09:47:51;101328.63;;;-3.35;85.77
69855;BME280;57146;48.140;16.304;2022-12-18T09:50:33;101326.72;;;-3.33;85.69
69855;BME280;57146;48.140;16.304;2022-12-18T09:53:15;101329.78;;;-3.30;85.48
69855;BME280;57146;48.140;16.304;2022-12-18T09:55:46;101323.47;;;-3.27;85.34
69855;BME280;57146;48.140;16.304;2022-12-18T10:00:54;101320.13;;;-3.20;85.86
69855;BME280;57146;48.140;16.304;2022-12-18T10:03:21;101315.00;;;-3.20;85.68
69855;BME280;57146;48.140;16.304;2022-12-18T10:14:34;101299.53;;;-3.11;85.10
69855;BME280;57146;48.140;16.304;2022-12-18T10:22:50;101301.47;;;-3.05;83.97
69855;BME280;57146;48.140;16.304;2022-12-18T10:25:23;101311.59;;;-3.04;84.49
69855;BME280;57146;48.140;16.304;2022-12-18T10:27:57;101315.16;;;-3.05;84.40
69855;BME280;57146;48.140;16.304;2022-12-18T10:30:26;101310.63;;;-3.03;83.81
69855;BME280;57146;48.140;16.304;2022-12-18T10:32:53;101304.84;;;-3.05;84.42
69855;BME280;57146;48.140;16.304;2022-12-18T10:35:23;101303.75;;;-3.02;84.00
69855;BME280;57146;48.140;16.304;2022-12-18T10:40:29;101299.22;;;-3.00;84.05
69855;BME280;57146;48.140;16.304;2022-12-18T10:43:04;101302.44;;;-2.98;83.48
69855;BME280;57146;48.140;16.304;2022-12-18T10:45:31;101304.22;;;-2.99;83.53
69855;BME280;57146;48.140;16.304;2022-12-18T10:47:58;101305.50;;;-2.95;83.67
69855;BME280;57146;48.140;16.304;2022-12-18T10:50:32;101299.06;;;-2.99;83.76
69855;BME280;57146;48.140;16.304;2022-12-18T10:53:22;101295.03;;;-3.01;83.65
69855;BME280;57146;48.140;16.304;2022-12-18T10:55:52;101297.44;;;-3.00;83.45
69855;BME280;57146;48.140;16.304;2022-12-18T11:01:16;101292.59;;;-3.11;83.24
69855;BME280;57146;48.140;16.304;2022-12-18T11:04:09;101291.47;;;-3.08;84.11
69855;BME280;57146;48.140;16.304;2022-12-18T11:06:52;101288.25;;;-3.10;84.54
69855;BME280;57146;48.140;16.304;2022-12-18T11:09:22;101284.88;;;-3.11;83.56
69855;BME280;57146;48.140;16.304;2022-12-18T11:11:50;101279.41;;;-3.08;83.54
69855;BME280;57146;48.140;16.304;2022-12-18T11:17:33;101273.63;;;-3.02;84.02
69855;BME280;57146;48.140;16.304;2022-12-18T11:20:04;101277.97;;;-3.02;84.42
69855;BME280;57146;48.140;16.304;2022-12-18T11:22:33;101279.88;;;-3.04;84.30
69855;BME280;57146;48.140;16.304;2022-12-18T11:27:55;101281.16;;;-3.00;83.66
69855;BME280;57146;48.140;16.304;2022-12-18T11:30:27;101281.50;;;-3.03;83.92
69855;BME280;57146;48.140;16.304;2022-12-18T11:37:58;101275.38;;;-2.94;83.43
69855;BME280;57146;48.140;16.304;2022-12-18T11:40:36;101275.53;;;-2.96;83.31
69855;BME280;57146;48.140;16.304;2022-12-18T11:43:13;101273.44;;;-2.92;83.57
69855;BME280;57146;48.140;16.304;2022-12-18T11:45:49;101261.38;;;-2.92;83.61
69855;BME280;57146;48.140;16.304;2022-12-18T11:48:27;101261.53;;;-2.93;83.60
69855;BME280;57146;48.140;16.304;2022-12-18T11:50:56;101263.78;;;-2.90;83.85
69855;BME280;57146;48.140;16.304;2022-12-18T11:53:25;101266.34;;;-2.90;83.82
69855;BME280;57146;48.140;16.304;2022-12-18T11:58:45;101253.16;;;-2.87;83.79
69855;BME280;57146;48.140;16.304;2022-12-18T12:01:22;101247.00;;;-2.86;82.93
69855;BME280;57146;48.140;16.304;2022-12-18T12:07:03;101254.13;;;-2.88;83.85
69855;BME280;57146;48.140;16.304;2022-12-18T12:10:26;101242.84;;;-2.87;83.10
69855;BME280;57146;48.140;16.304;2022-12-18T12:15:42;101242.66;;;-2.85;82.58
69855;BME280;57146;48.140;16.304;2022-12-18T12:25:59;101245.09;;;-2.84;83.20
69855;BME280;57146;48.140;16.304;2022-12-18T12:39:09;101239.63;;;-2.81;83.25
69855;BME280;57146;48.140;16.304;2022-12-18T12:41:39;101237.19;;;-2.82;83.19
69855;BME280;57146;48.140;16.304;2022-12-18T12:44:13;101229.44;;;-2.82;83.38
69855;BME280;57146;48.140;16.304;2022-12-18T12:46:43;101223.03;;;-2.86;83.07
69855;BME280;57146;48.140;16.304;2022-12-18T12:49:14;101223.97;;;-2.79;83.10
69855;BME280;57146;48.140;16.304;2022-12-18T12:51:45;101226.06;;;-2.83;82.78
69855;BME280;57146;48.140;16.304;2022-12-18T12:54:21;101224.31;;;-2.82;83.46
69855;BME280;57146;48.140;16.304;2022-12-18T12:57:20;101233.81;;;-2.83;83.37
69855;BME280;57146;48.140;16.304;2022-12-18T13:00:11;101243.94;;;-2.81;83.62
69855;BME280;57146;48.140;16.304;2022-12-18T13:02:50;101241.69;;;-2.76;83.29
69855;BME280;57146;48.140;16.304;2022-12-18T13:08:10;101250.06;;;-2.74;83.81
69855;BME280;57146;48.140;16.304;2022-12-18T13:10:40;101243.94;;;-2.73;82.83
69855;BME280;57146;48.140;16.304;2022-12-18T13:13:08;101255.06;;;-2.73;83.69
69855;BME280;57146;48.140;16.304;2022-12-18T13:15:44;101263.41;;;-2.71;82.65
69855;BME280;57146;48.140;16.304;2022-12-18T13:18:23;101259.09;;;-2.78;82.85
69855;BME280;57146;48.140;16.304;2022-12-18T13:21:02;101259.56;;;-2.75;83.54
69855;BME280;57146;48.140;16.304;2022-12-18T13:23:39;101263.91;;;-2.75;83.62
69855;BME280;57146;48.140;16.304;2022-12-18T13:31:58;101261.50;;;-2.69;83.63
69855;BME280;57146;48.140;16.304;2022-12-18T13:34:23;101251.34;;;-2.70;83.07
69855;BME280;57146;48.140;16.304;2022-12-18T13:36:55;101253.59;;;-2.75;83.03
69855;BME280;57146;48.140;16.304;2022-12-18T13:39:26;101249.72;;;-2.71;83.47
69855;BME280;57146;48.140;16.304;2022-12-18T13:44:36;101257.94;;;-2.68;83.23
69855;BME280;57146;48.140;16.304;2022-12-18T13:47:27;101256.03;;;-2.74;83.92
69855;BME280;57146;48.140;16.304;2022-12-18T13:49:57;101257.16;;;-2.76;84.25
69855;BME280;57146;48.140;16.304;2022-12-18T13:52:27;101254.41;;;-2.75;82.72
69855;BME280;57146;48.140;16.304;2022-12-18T13:54:56;101267.63;;;-2.70;83.13
69855;BME280;57146;48.140;16.304;2022-12-18T13:59:56;101261.66;;;-2.70;83.39
69855;BME280;57146;48.140;16.304;2022-12-18T14:02:26;101271.16;;;-2.71;84.07
69855;BME280;57146;48.140;16.304;2022-12-18T14:04:54;101271.97;;;-2.70;83.53
69855;BME280;57146;48.140;16.304;2022-12-18T14:07:28;101276.16;;;-2.69;83.45
69855;BME280;57146;48.140;16.304;2022-12-18T14:10:03;101282.28;;;-2.70;83.78
69855;BME280;57146;48.140;16.304;2022-12-18T14:12:51;101280.03;;;-2.65;84.05
69855;BME280;57146;48.140;16.304;2022-12-18T14:15:39;101274.22;;;-2.67;84.17
69855;BME280;57146;48.140;16.304;2022-12-18T14:18:28;101275.84;;;-2.66;83.77
69855;BME280;57146;48.140;16.304;2022-12-18T14:20:59;101285.19;;;-2.65;84.04
69855;BME280;57146;48.140;16.304;2022-12-18T14:23:41;101285.19;;;-2.65;83.94
69855;BME280;57146;48.140;16.304;2022-12-18T14:26:26;101293.09;;;-2.67;83.69
69855;BME280;57146;48.140;16.304;2022-12-18T14:29:40;101294.69;;;-2.66;84.23
69855;BME280;57146;48.140;16.304;2022-12-18T14:31:42;101304.03;;;-2.65;84.73
69855;BME280;57146;48.140;16.304;2022-12-18T14:34:16;101312.25;;;-2.61;83.60
69855;BME280;57146;48.140;16.304;2022-12-18T14:36:52;101309.97;;;-2.64;84.41
69855;BME280;57146;48.140;16.304;2022-12-18T14:39:19;101306.31;;;-2.70;84.82